Time;durP1;ratioP1;P1;durP2;ratioP2;P2;SDS_P1;SDS_P2;PMS_P1;PMS_P2;Temp;Humidity;BMP_temperature;BMP_pressure;BME280_temperature;BME280_humidity;BME280_pressure;Samples;Min_cycle;Max_cycle;Signal;HPM_P1;HPM_P2
2021/01/23 00:00:23;;;;;;;24.77;14.70;;;4.90;99.90;;;;;;4990729;28;20471;-50
2021/01/23 00:02:49;;;;;;;25.90;14.70;;;4.70;99.90;;;;;;4990796;28;20457;-50
2021/01/23 00:05:16;;;;;;;24.10;14.37;;;4.60;99.90;;;;;;4987204;28;20854;-49
2021/01/23 00:07:43;;;;;;;23.80;14.83;;;4.80;99.90;;;;;;4971175;28;20461;-49
2021/01/23 00:10:11;;;;;;;25.93;13.90;;;4.50;99.90;;;;;;5011816;23;20503;-52
2021/01/23 00:12:38;;;;;;;23.50;13.50;;;4.60;99.90;;;;;;4990558;28;20844;-51
2021/01/23 00:15:06;;;;;;;25.37;14.20;;;4.70;99.90;;;;;;4972978;28;20452;-52
2021/01/23 00:17:32;;;;;;;20.90;12.80;;;4.70;99.90;;;;;;4989833;28;20461;-52
2021/01/23 00:19:59;;;;;;;21.10;11.80;;;4.80;99.90;;;;;;4978143;28;20530;-51
2021/01/23 00:22:25;;;;;;;18.33;11.03;;;4.70;99.90;;;;;;4971460;28;20459;-51
2021/01/23 00:24:53;;;;;;;19.60;11.23;;;4.80;99.90;;;;;;4970928;28;20462;-51
2021/01/23 00:27:19;;;;;;;19.27;11.80;;;4.80;99.90;;;;;;4951993;28;20511;-52
2021/01/23 00:29:46;;;;;;;17.10;10.87;;;4.90;99.90;;;;;;4951974;29;20476;-51
2021/01/23 00:32:13;;;;;;;18.90;11.50;;;5.00;99.90;;;;;;4952060;28;20454;-52
2021/01/23 00:34:39;;;;;;;15.70;9.57;;;4.80;99.90;;;;;;4951822;29;20448;-52
2021/01/23 00:37:06;;;;;;;16.90;11.10;;;4.80;99.90;;;;;;4968660;28;20455;-52
2021/01/23 00:39:32;;;;;;;14.10;9.47;;;4.80;99.90;;;;;;4970925;28;21012;-51
2021/01/23 00:41:59;;;;;;;12.30;7.87;;;4.90;99.90;;;;;;4971014;28;20953;-52
2021/01/23 00:44:26;;;;;;;13.13;8.50;;;5.10;99.90;;;;;;4971175;28;20455;-51
2021/01/23 00:46:55;;;;;;;13.17;9.07;;;5.00;99.90;;;;;;4955851;28;20488;-51
2021/01/23 00:49:22;;;;;;;13.60;8.80;;;5.00;99.90;;;;;;4955352;29;20487;-52
2021/01/23 00:51:48;;;;;;;10.17;6.93;;;5.00;99.90;;;;;;4955318;29;20455;-51
2021/01/23 00:54:15;;;;;;;10.70;7.63;;;5.00;99.90;;;;;;4961981;28;20458;-51
2021/01/23 00:56:41;;;;;;;10.30;6.57;;;5.00;99.90;;;;;;4974622;28;20447;-51
2021/01/23 00:59:09;;;;;;;8.70;6.50;;;4.80;99.90;;;;;;4974192;28;20483;-51
2021/01/23 01:01:35;;;;;;;11.63;7.60;;;4.80;99.90;;;;;;4955140;29;20871;-51
2021/01/23 01:04:02;;;;;;;5.93;3.30;;;4.80;99.90;;;;;;4959970;28;20479;-51
2021/01/23 01:06:29;;;;;;;1.80;1.50;;;4.60;99.90;;;;;;4974328;28;20495;-49
2021/01/23 01:08:55;;;;;;;2.40;2.07;;;4.40;99.90;;;;;;4974055;28;20488;-49
2021/01/23 01:11:22;;;;;;;2.60;1.63;;;4.40;99.90;;;;;;4974333;28;20972;-49
2021/01/23 01:13:48;;;;;;;1.60;1.30;;;4.70;99.90;;;;;;4973343;28;20455;-49
2021/01/23 01:16:16;;;;;;;1.40;1.30;;;4.60;99.90;;;;;;4974351;28;20458;-51
2021/01/23 01:18:43;;;;;;;0.90;0.90;;;4.50;99.90;;;;;;4974401;28;20451;-51
2021/01/23 01:21:10;;;;;;;0.50;0.40;;;4.40;99.90;;;;;;4974226;28;20456;-48
2021/01/23 01:23:36;;;;;;;0.50;0.30;;;4.60;99.90;;;;;;4959366;28;20456;-48
2021/01/23 01:26:03;;;;;;;0.47;0.30;;;4.60;99.90;;;;;;4954779;29;20487;-49
2021/01/23 01:28:29;;;;;;;0.50;0.30;;;4.50;99.90;;;;;;4954955;28;20988;-49
2021/01/23 01:30:56;;;;;;;0.50;0.30;;;4.20;99.90;;;;;;4954607;29;20456;-49
2021/01/23 01:33:23;;;;;;;0.50;0.30;;;4.20;99.90;;;;;;4967106;28;20504;-48
2021/01/23 01:35:50;;;;;;;0.50;0.30;;;4.20;99.90;;;;;;4973886;28;20448;-48
2021/01/23 01:38:16;;;;;;;0.50;0.30;;;4.20;99.90;;;;;;4973650;28;20455;-49
2021/01/23 01:40:43;;;;;;;0.50;0.30;;;4.00;99.90;;;;;;4971807;28;20899;-48
2021/01/23 01:43:09;;;;;;;1.20;0.30;;;3.90;99.90;;;;;;4969808;28;20456;-49
2021/01/23 01:45:36;;;;;;;0.47;0.30;;;3.70;99.90;;;;;;4972630;28;20850;-49
2021/01/23 01:48:03;;;;;;;0.50;0.30;;;3.60;99.90;;;;;;4958207;28;20996;-49
2021/01/23 01:50:31;;;;;;;0.47;0.33;;;3.80;99.90;;;;;;4957942;28;20868;-49
2021/01/23 01:52:57;;;;;;;0.60;0.40;;;3.60;99.90;;;;;;4961165;28;20862;-48
2021/01/23 01:55:31;;;;;;;0.50;0.30;;;3.70;99.90;;;;;;4958633;28;20525;-49
2021/01/23 01:57:58;;;;;;;0.90;0.43;;;3.60;99.90;;;;;;4954815;28;20488;-48
2021/01/23 02:00:25;;;;;;;0.97;0.50;;;3.60;99.90;;;;;;4956718;28;21052;-48
2021/01/23 02:03:29;;;;;;;0.50;0.30;;;3.50;99.90;;;;;;4957479;28;20462;-49
2021/01/23 02:06:08;;;;;;;0.67;0.47;;;3.50;99.90;;;;;;4959996;28;20483;-49
2021/01/23 02:08:47;;;;;;;0.50;0.40;;;3.60;99.90;;;;;;4956261;28;20462;-48
2021/01/23 02:11:22;;;;;;;0.50;0.30;;;3.60;99.90;;;;;;4954169;28;20468;-49
2021/01/23 02:13:54;;;;;;;0.50;0.40;;;3.40;99.90;;;;;;4965467;28;20482;-49
2021/01/23 02:16:25;;;;;;;0.53;0.30;;;3.40;99.90;;;;;;4965432;28;20455;-48
2021/01/23 02:19:00;;;;;;;0.63;0.50;;;3.50;99.90;;;;;;4959374;28;20478;-49
2021/01/23 02:22:17;;;;;;;0.50;0.40;;;3.50;99.90;;;;;;4971562;28;20461;-49
2021/01/23 02:24:47;;;;;;;0.50;0.30;;;3.60;99.90;;;;;;4882509;29;20448;-49
2021/01/23 02:27:24;;;;;;;0.50;0.30;;;3.60;99.90;;;;;;4966362;28;20483;-49
2021/01/23 02:30:12;;;;;;;0.63;0.40;;;3.40;99.90;;;;;;4958553;28;20913;-48
2021/01/23 02:32:40;;;;;;;0.73;0.57;;;3.40;99.90;;;;;;4959210;28;20547;-49
2021/01/23 02:35:10;;;;;;;0.60;0.40;;;3.50;99.90;;;;;;4959616;28;20457;-48
2021/01/23 02:37:39;;;;;;;0.60;0.50;;;3.40;99.90;;;;;;4963199;28;20969;-48
2021/01/23 02:40:08;;;;;;;0.60;0.40;;;3.20;99.90;;;;;;4957850;28;20470;-49
2021/01/23 02:42:34;;;;;;;0.73;0.40;;;3.50;99.90;;;;;;4957810;28;20447;-48
2021/01/23 02:45:01;;;;;;;0.50;0.40;;;3.50;99.90;;;;;;4972806;28;20462;-49
2021/01/23 02:47:28;;;;;;;0.70;0.30;;;3.60;99.90;;;;;;4972068;28;20455;-48
2021/01/23 02:49:55;;;;;;;0.50;0.30;;;3.60;99.90;;;;;;4963821;28;20480;-49
2021/01/23 02:52:28;;;;;;;0.50;0.30;;;3.60;99.90;;;;;;4954128;28;20486;-49
2021/01/23 02:55:01;;;;;;;0.50;0.30;;;3.50;99.90;;;;;;4953237;28;20526;-49
2021/01/23 02:57:27;;;;;;;0.70;0.40;;;3.50;99.90;;;;;;4969795;28;20455;-49
2021/01/23 02:59:59;;;;;;;0.50;0.33;;;3.60;99.90;;;;;;4964911;28;20486;-48
2021/01/23 03:02:28;;;;;;;0.60;0.40;;;3.50;99.90;;;;;;4953166;29;20487;-49
2021/01/23 03:04:58;;;;;;;0.50;0.33;;;3.40;99.90;;;;;;4962769;28;20457;-48
2021/01/23 03:07:25;;;;;;;0.50;0.30;;;3.50;99.90;;;;;;4971836;28;20455;-48
2021/01/23 03:09:51;;;;;;;0.70;0.30;;;3.30;99.90;;;;;;4961111;28;21063;-48
2021/01/23 03:12:18;;;;;;;0.83;0.40;;;3.30;99.90;;;;;;4952795;28;20467;-48
2021/01/23 03:14:44;;;;;;;0.50;0.30;;;3.30;99.90;;;;;;4952473;28;20452;-49
2021/01/23 03:17:11;;;;;;;1.17;0.30;;;3.30;99.90;;;;;;4953626;28;20515;-49
2021/01/23 03:19:37;;;;;;;0.83;0.40;;;3.30;99.90;;;;;;4963086;28;20706;-48
2021/01/23 03:22:05;;;;;;;0.50;0.40;;;3.30;99.90;;;;;;4971460;28;20480;-49
2021/01/23 03:24:31;;;;;;;0.60;0.40;;;3.20;99.90;;;;;;4968412;28;20835;-49
2021/01/23 03:26:58;;;;;;;0.50;0.40;;;3.20;99.90;;;;;;4971957;28;20487;-49
2021/01/23 03:29:24;;;;;;;0.50;0.30;;;3.20;99.90;;;;;;4959749;28;20501;-48
2021/01/23 03:31:51;;;;;;;0.50;0.40;;;3.20;99.90;;;;;;4971353;28;20514;-49
2021/01/23 03:34:18;;;;;;;0.50;0.30;;;3.20;99.90;;;;;;4971656;28;20451;-49
2021/01/23 03:36:44;;;;;;;0.87;0.37;;;3.30;99.90;;;;;;4970212;28;20447;-49
2021/01/23 03:39:12;;;;;;;0.60;0.40;;;3.40;99.90;;;;;;4970731;28;20479;-49
2021/01/23 03:41:38;;;;;;;0.50;0.33;;;3.50;99.90;;;;;;4971486;28;20462;-49
2021/01/23 03:44:05;;;;;;;0.50;0.40;;;3.50;99.90;;;;;;4971248;28;20872;-49
2021/01/23 03:46:33;;;;;;;0.60;0.40;;;3.60;99.90;;;;;;4971608;28;20486;-49
2021/01/23 03:48:59;;;;;;;0.50;0.40;;;3.60;99.90;;;;;;4966771;28;20506;-49
2021/01/23 03:51:26;;;;;;;0.50;0.40;;;3.40;99.90;;;;;;4965291;28;20471;-51
2021/01/23 03:53:52;;;;;;;0.60;0.50;;;3.20;99.90;;;;;;4953043;28;20457;-49
2021/01/23 03:56:20;;;;;;;0.60;0.60;;;3.10;99.90;;;;;;4952086;29;20968;-49
2021/01/23 03:58:46;;;;;;;0.50;0.40;;;3.20;99.90;;;;;;4953202;28;20476;-49
2021/01/23 04:01:13;;;;;;;0.60;0.50;;;3.20;99.90;;;;;;4970679;28;20465;-49
2021/01/23 04:03:42;;;;;;;0.60;0.50;;;3.00;99.90;;;;;;4971458;28;20455;-49
2021/01/23 04:06:09;;;;;;;0.60;0.50;;;3.00;99.90;;;;;;4964547;28;20482;-49
2021/01/23 04:08:36;;;;;;;0.50;0.40;;;2.90;99.90;;;;;;4969746;28;20452;-49
2021/01/23 04:11:03;;;;;;;0.60;0.50;;;2.90;99.90;;;;;;4970842;28;20475;-49
2021/01/23 04:13:30;;;;;;;0.50;0.40;;;2.80;99.90;;;;;;4970119;28;20459;-49
2021/01/23 04:15:57;;;;;;;0.60;0.50;;;2.90;99.90;;;;;;4970001;28;20459;-49
2021/01/23 04:18:23;;;;;;;0.50;0.40;;;2.90;99.90;;;;;;4971893;28;20509;-49
2021/01/23 04:20:50;;;;;;;0.60;0.30;;;2.90;99.90;;;;;;4970743;28;21030;-49
2021/01/23 04:23:16;;;;;;;0.50;0.40;;;2.90;99.90;;;;;;4967790;28;20467;-49
2021/01/23 04:25:43;;;;;;;0.50;0.40;;;2.90;99.90;;;;;;4956252;28;21174;-49
2021/01/23 04:28:09;;;;;;;0.40;0.30;;;3.10;99.90;;;;;;4963725;28;20451;-49
2021/01/23 04:30:37;;;;;;;0.50;0.30;;;3.10;99.90;;;;;;4968823;28;20478;-49
2021/01/23 04:33:03;;;;;;;1.03;0.40;;;3.00;99.90;;;;;;4955972;28;20461;-49
2021/01/23 04:35:30;;;;;;;0.50;0.30;;;3.20;99.90;;;;;;4955941;28;20527;-49
2021/01/23 04:37:56;;;;;;;0.50;0.40;;;3.20;99.90;;;;;;4968886;28;20995;-49
2021/01/23 04:40:23;;;;;;;0.50;0.40;;;3.00;99.90;;;;;;4972864;28;20474;-49
2021/01/23 04:42:50;;;;;;;0.80;0.43;;;3.00;99.90;;;;;;4971300;28;20867;-49
2021/01/23 04:45:16;;;;;;;0.50;0.40;;;3.00;99.90;;;;;;4955955;28;20456;-49
2021/01/23 04:47:44;;;;;;;0.50;0.40;;;2.90;99.90;;;;;;4955944;29;20514;-49
2021/01/23 04:50:12;;;;;;;0.50;0.40;;;2.80;99.90;;;;;;4958797;28;20534;-49
2021/01/23 04:52:39;;;;;;;0.50;0.40;;;2.80;99.90;;;;;;4957061;28;20460;-49
2021/01/23 04:55:08;;;;;;;0.50;0.40;;;2.80;99.90;;;;;;4970849;28;20447;-49
2021/01/23 04:57:35;;;;;;;0.57;0.40;;;2.80;99.90;;;;;;4971180;28;20486;-49
2021/01/23 05:00:01;;;;;;;0.57;0.37;;;2.90;99.90;;;;;;4967994;28;20482;-49
2021/01/23 05:02:28;;;;;;;0.60;0.40;;;2.80;99.90;;;;;;4975054;28;20529;-49
2021/01/23 05:04:57;;;;;;;0.50;0.47;;;2.70;99.90;;;;;;4973177;28;20455;-49
2021/01/23 05:07:29;;;;;;;0.80;0.50;;;2.70;99.90;;;;;;4971444;28;21004;-48
2021/01/23 05:09:56;;;;;;;5.47;0.80;;;2.80;99.90;;;;;;4960085;28;20481;-49
2021/01/23 05:12:40;;;;;;;1.10;0.70;;;2.80;99.90;;;;;;4966595;28;20463;-49
2021/01/23 05:15:09;;;;;;;0.80;0.60;;;2.80;99.90;;;;;;4971761;28;20455;-49
2021/01/23 05:17:49;;;;;;;2.20;0.60;;;2.80;99.90;;;;;;4974231;28;20458;-49
2021/01/23 05:20:31;;;;;;;1.20;1.10;;;2.90;99.90;;;;;;4963886;28;20472;-49
2021/01/23 05:22:58;;;;;;;1.20;0.90;;;2.90;99.90;;;;;;4960566;28;20447;-49
2021/01/23 05:25:29;;;;;;;1.13;0.67;;;2.90;99.90;;;;;;4974222;28;20448;-49
2021/01/23 05:27:55;;;;;;;0.60;0.50;;;3.00;99.90;;;;;;4974365;28;20451;-49
2021/01/23 05:30:23;;;;;;;0.50;0.40;;;2.80;99.90;;;;;;4966986;28;20475;-49
2021/01/23 05:33:06;;;;;;;0.53;0.40;;;2.80;99.90;;;;;;4955403;28;20448;-49
2021/01/23 05:35:34;;;;;;;4.10;0.87;;;2.90;99.90;;;;;;4954802;29;20455;-49
2021/01/23 05:38:16;;;;;;;2.00;1.73;;;2.80;99.90;;;;;;4955250;29;20452;-49
2021/01/23 05:40:43;;;;;;;1.00;0.60;;;2.90;99.90;;;;;;4964202;28;21066;-48
2021/01/23 05:43:09;;;;;;;0.73;0.50;;;2.90;99.90;;;;;;4954929;28;20471;-49
2021/01/23 05:45:36;;;;;;;0.60;0.50;;;3.10;99.90;;;;;;4954762;28;20862;-48
2021/01/23 05:48:09;;;;;;;0.60;0.50;;;3.10;99.90;;;;;;4954920;29;20470;-49
2021/01/23 05:50:37;;;;;;;0.70;0.50;;;3.00;99.90;;;;;;4958461;28;20472;-49
2021/01/23 05:53:03;;;;;;;0.60;0.60;;;3.00;99.90;;;;;;4966232;28;20467;-49
2021/01/23 05:55:30;;;;;;;0.67;0.50;;;3.10;99.90;;;;;;4962251;28;20968;-49
2021/01/23 05:57:57;;;;;;;0.80;0.70;;;3.00;99.90;;;;;;4973802;28;20457;-50
2021/01/23 06:00:25;;;;;;;0.63;0.60;;;2.80;99.90;;;;;;4964127;28;20471;-48
2021/01/23 06:02:51;;;;;;;1.67;0.60;;;2.70;99.90;;;;;;4982682;28;20446;-49
2021/01/23 06:05:18;;;;;;;0.70;0.60;;;2.80;99.90;;;;;;4993090;28;20454;-49
2021/01/23 06:07:47;;;;;;;1.93;0.70;;;2.90;99.90;;;;;;4977202;28;20447;-49
2021/01/23 06:10:41;;;;;;;0.67;0.57;;;3.00;99.90;;;;;;4954337;29;21010;-48
2021/01/23 06:13:36;;;;;;;1.63;0.70;;;3.10;99.90;;;;;;4954535;29;20460;-49
2021/01/23 06:16:04;;;;;;;2.70;0.60;;;3.20;99.90;;;;;;4954452;29;20515;-49
2021/01/23 06:18:31;;;;;;;2.37;0.80;;;3.20;99.90;;;;;;4954660;28;20452;-49
2021/01/23 06:20:58;;;;;;;1.07;0.70;;;3.10;99.90;;;;;;4954350;29;20503;-49
2021/01/23 06:23:48;;;;;;;0.90;0.73;;;2.90;99.90;;;;;;4954335;29;20444;-49
2021/01/23 06:26:15;;;;;;;0.70;0.67;;;3.00;99.90;;;;;;4959002;28;20504;-49
2021/01/23 06:28:54;;;;;;;2.17;1.30;;;3.10;99.90;;;;;;4964480;28;20456;-49
2021/01/23 06:31:35;;;;;;;1.37;1.10;;;2.90;99.90;;;;;;4955069;28;20507;-49
2021/01/23 06:34:22;;;;;;;1.50;1.40;;;2.70;99.90;;;;;;4953582;29;20503;-49
2021/01/23 06:36:48;;;;;;;2.47;1.20;;;2.90;99.90;;;;;;4953820;29;21032;-49
2021/01/23 06:39:16;;;;;;;3.20;1.10;;;2.90;99.90;;;;;;4953921;28;20476;-49
2021/01/23 06:41:42;;;;;;;1.10;1.00;;;2.90;99.90;;;;;;4953926;29;20459;-49
2021/01/23 06:44:17;;;;;;;1.63;1.53;;;2.90;99.90;;;;;;4953458;29;20460;-49
2021/01/23 06:46:56;;;;;;;1.20;1.10;;;2.90;99.90;;;;;;4966487;28;20474;-48
2021/01/23 06:49:23;;;;;;;1.83;1.70;;;2.90;99.90;;;;;;4961360;28;20611;-49
2021/01/23 06:51:49;;;;;;;3.63;2.60;;;2.90;99.90;;;;;;4959495;28;20879;-49
2021/01/23 06:54:18;;;;;;;2.90;2.60;;;2.80;99.90;;;;;;4972732;28;20455;-49
2021/01/23 06:56:47;;;;;;;2.40;2.20;;;2.80;99.90;;;;;;4972062;28;20461;-51
2021/01/23 06:59:24;;;;;;;4.83;2.80;;;2.80;99.90;;;;;;5012682;23;20533;-48
2021/01/23 07:01:58;;;;;;;9.30;3.97;;;2.90;99.90;;;;;;4991103;28;21042;-48
2021/01/23 07:04:26;;;;;;;5.80;3.43;;;2.90;99.90;;;;;;4991717;28;20532;-47
2021/01/23 07:06:53;;;;;;;10.77;4.60;;;2.80;99.90;;;;;;4991540;28;20478;-48
2021/01/23 07:09:21;;;;;;;26.57;9.70;;;2.90;99.90;;;;;;4982751;28;20974;-47
2021/01/23 07:11:48;;;;;;;32.87;12.97;;;2.90;99.90;;;;;;4973472;28;20521;-48
2021/01/23 07:14:14;;;;;;;52.27;17.93;;;3.00;99.90;;;;;;4998135;28;20976;-47
2021/01/23 07:16:52;;;;;;;32.20;12.70;;;3.00;99.90;;;;;;4986627;28;20450;-48
2021/01/23 07:19:25;;;;;;;30.20;11.60;;;3.00;99.90;;;;;;4986696;28;20450;-47
2021/01/23 07:21:53;;;;;;;28.57;11.27;;;3.10;99.90;;;;;;4989794;28;20936;-48
2021/01/23 07:24:19;;;;;;;27.77;11.10;;;2.80;99.90;;;;;;4987121;28;20981;-48
2021/01/23 07:26:47;;;;;;;25.50;9.90;;;2.90;99.90;;;;;;4990977;28;20478;-48
2021/01/23 07:29:14;;;;;;;18.07;7.60;;;3.00;99.90;;;;;;4990734;28;20524;-47
2021/01/23 07:31:41;;;;;;;15.30;6.90;;;3.10;99.90;;;;;;4991573;28;20860;-48
2021/01/23 07:34:12;;;;;;;19.43;6.97;;;3.10;99.90;;;;;;4991430;28;20509;-47
2021/01/23 07:36:40;;;;;;;17.20;8.57;;;3.20;99.90;;;;;;4981332;28;20447;-47
2021/01/23 07:39:08;;;;;;;15.60;6.80;;;3.20;99.90;;;;;;4990676;28;20478;-48
2021/01/23 07:41:38;;;;;;;11.33;6.03;;;3.10;99.90;;;;;;4991542;28;20462;-48
2021/01/23 07:44:09;;;;;;;11.30;5.77;;;3.20;99.90;;;;;;4990425;28;20513;-47
2021/01/23 07:46:40;;;;;;;8.77;4.87;;;3.20;99.90;;;;;;4985828;28;20515;-49
2021/01/23 07:49:09;;;;;;;7.27;4.10;;;3.30;99.90;;;;;;4984420;28;20983;-48
2021/01/23 07:51:36;;;;;;;8.37;3.90;;;3.30;99.90;;;;;;4972252;28;20455;-48
2021/01/23 07:54:07;;;;;;;7.27;3.70;;;3.40;99.90;;;;;;4990166;28;20462;-48
2021/01/23 07:56:33;;;;;;;8.63;3.10;;;3.50;99.90;;;;;;4990156;28;20442;-48
2021/01/23 07:59:01;;;;;;;4.10;2.30;;;3.40;99.90;;;;;;4990794;28;20510;-48
2021/01/23 08:01:28;;;;;;;2.90;2.20;;;3.30;99.90;;;;;;4991221;28;20454;-48
2021/01/23 08:03:55;;;;;;;3.40;2.60;;;3.50;99.90;;;;;;4990916;28;20543;-48
2021/01/23 08:06:22;;;;;;;3.30;2.73;;;3.30;99.90;;;;;;4988767;28;20495;-47
2021/01/23 08:08:49;;;;;;;5.60;2.70;;;3.30;99.90;;;;;;4971834;28;20471;-47
2021/01/23 08:11:35;;;;;;;4.00;2.73;;;3.30;99.90;;;;;;4971850;28;21040;-48
2021/01/23 08:14:13;;;;;;;2.43;2.20;;;3.40;99.90;;;;;;4971526;28;21159;-48
2021/01/23 08:16:53;;;;;;;4.50;2.57;;;3.30;99.90;;;;;;4976308;28;20818;-47
2021/01/23 08:19:20;;;;;;;3.97;2.33;;;3.40;99.90;;;;;;4991227;28;20468;-48
2021/01/23 08:22:06;;;;;;;1.93;1.73;;;3.50;99.90;;;;;;4991063;28;20450;-47
2021/01/23 08:24:32;;;;;;;1.80;1.70;;;3.80;99.90;;;;;;4991006;28;20446;-48
2021/01/23 08:27:15;;;;;;;2.40;1.73;;;3.60;99.90;;;;;;4983547;28;21000;-48
2021/01/23 08:29:42;;;;;;;1.97;1.50;;;3.70;99.90;;;;;;4971730;28;20535;-48
2021/01/23 08:32:10;;;;;;;1.87;1.67;;;3.80;99.90;;;;;;4982681;28;20453;-48
2021/01/23 08:34:36;;;;;;;1.57;1.20;;;3.90;99.90;;;;;;4990776;28;20457;-48
2021/01/23 08:37:03;;;;;;;2.47;1.77;;;4.00;99.90;;;;;;4983314;28;20447;-48
2021/01/23 08:39:29;;;;;;;2.97;1.70;;;3.90;99.90;;;;;;4971731;28;20529;-48
2021/01/23 08:41:56;;;;;;;2.03;1.83;;;4.00;99.90;;;;;;4971601;28;20451;-47
2021/01/23 08:44:22;;;;;;;4.70;2.47;;;4.10;99.90;;;;;;4971410;28;20451;-48
2021/01/23 08:46:49;;;;;;;4.93;2.87;;;4.10;99.90;;;;;;4985943;28;20566;-48
2021/01/23 08:49:16;;;;;;;5.00;3.20;;;4.10;99.90;;;;;;4990711;28;20474;-48
2021/01/23 08:51:43;;;;;;;5.60;4.40;;;4.10;99.90;;;;;;4990739;28;20949;-50
2021/01/23 08:54:10;;;;;;;4.40;3.70;;;4.10;99.90;;;;;;4990608;28;20602;-48
2021/01/23 08:56:36;;;;;;;5.80;3.43;;;4.00;99.90;;;;;;4976030;28;20451;-48
2021/01/23 08:59:02;;;;;;;5.80;3.53;;;4.10;99.90;;;;;;4973518;28;20490;-50
2021/01/23 09:01:29;;;;;;;5.00;3.20;;;4.10;99.90;;;;;;5010379;28;20449;-48
2021/01/23 09:03:55;;;;;;;4.53;2.80;;;4.20;99.90;;;;;;5009913;28;20449;-48
2021/01/23 09:06:23;;;;;;;5.10;3.17;;;4.40;99.90;;;;;;4994406;28;20490;-48
2021/01/23 09:08:49;;;;;;;3.80;2.80;;;4.50;99.90;;;;;;4992034;28;20470;-48
2021/01/23 09:11:16;;;;;;;3.27;2.90;;;4.50;99.90;;;;;;4995564;28;20451;-48
2021/01/23 09:13:42;;;;;;;3.73;2.30;;;4.60;99.90;;;;;;5013607;28;20445;-49
2021/01/23 09:16:09;;;;;;;3.93;2.43;;;4.60;99.90;;;;;;4999765;28;20454;-49
2021/01/23 09:18:36;;;;;;;3.20;2.80;;;4.70;99.90;;;;;;4994116;28;20529;-49
2021/01/23 09:21:03;;;;;;;4.57;3.30;;;4.80;99.90;;;;;;4994260;28;20505;-48
2021/01/23 09:23:30;;;;;;;5.33;3.50;;;4.80;99.90;;;;;;4993819;28;21006;-49
2021/01/23 09:25:59;;;;;;;3.80;2.67;;;5.00;99.90;;;;;;4982691;28;20494;-49
2021/01/23 09:28:27;;;;;;;3.70;3.10;;;5.10;99.90;;;;;;4974234;28;20506;-49
2021/01/23 09:30:54;;;;;;;4.77;2.20;;;5.00;99.90;;;;;;4974520;28;20830;-49
2021/01/23 09:33:20;;;;;;;2.40;2.20;;;5.00;99.90;;;;;;4974252;28;20458;-49
2021/01/23 09:35:47;;;;;;;2.60;2.40;;;5.20;99.90;;;;;;4983334;28;20462;-49
2021/01/23 09:38:13;;;;;;;2.33;2.13;;;5.00;99.90;;;;;;4993551;28;20889;-49
2021/01/23 09:40:41;;;;;;;3.60;2.20;;;5.00;99.90;;;;;;4993725;28;20529;-49
2021/01/23 09:43:07;;;;;;;2.40;2.20;;;4.90;99.90;;;;;;4992993;28;20975;-49
2021/01/23 09:45:34;;;;;;;3.63;2.37;;;5.00;99.90;;;;;;4993290;28;20960;-49
2021/01/23 09:48:00;;;;;;;2.23;2.00;;;4.90;99.90;;;;;;4993430;28;21115;-49
2021/01/23 09:50:27;;;;;;;2.37;2.20;;;5.00;99.90;;;;;;4993525;28;20454;-50
2021/01/23 09:52:54;;;;;;;2.80;2.53;;;5.10;99.90;;;;;;4992824;28;20516;-49
2021/01/23 09:55:20;;;;;;;2.60;2.30;;;5.10;99.90;;;;;;4974879;28;20451;-49
2021/01/23 09:57:48;;;;;;;3.10;2.40;;;5.20;99.90;;;;;;4992690;28;20483;-49
2021/01/23 10:00:16;;;;;;;3.27;2.40;;;5.30;99.90;;;;;;4993151;28;20458;-49
2021/01/23 10:02:42;;;;;;;5.43;3.07;;;5.40;99.90;;;;;;4993087;28;20482;-49
2021/01/23 10:05:10;;;;;;;1.73;1.63;;;5.50;99.90;;;;;;4976484;28;20451;-49
2021/01/23 10:07:36;;;;;;;2.70;2.50;;;5.50;99.90;;;;;;4973645;28;20496;-49
2021/01/23 10:10:03;;;;;;;3.20;2.60;;;5.50;99.90;;;;;;4976833;28;21214;-49
2021/01/23 10:12:32;;;;;;;2.30;2.10;;;5.50;99.90;;;;;;4992997;28;20450;-49
2021/01/23 10:14:59;;;;;;;4.37;2.63;;;5.40;99.90;;;;;;4992002;28;20477;-50
2021/01/23 10:17:26;;;;;;;2.10;1.60;;;5.50;99.90;;;;;;4992691;28;21029;-50
2021/01/23 10:19:52;;;;;;;3.43;2.23;;;5.60;99.90;;;;;;4990997;28;20454;-50
2021/01/23 10:22:19;;;;;;;2.40;1.93;;;5.60;99.90;;;;;;4992909;28;20454;-49
2021/01/23 10:24:46;;;;;;;2.40;1.80;;;5.60;99.90;;;;;;5000541;28;20512;-49
2021/01/23 10:27:12;;;;;;;2.80;1.73;;;5.60;99.90;;;;;;5012118;28;20495;-49
2021/01/23 10:29:39;;;;;;;1.90;1.73;;;5.90;99.90;;;;;;5012159;28;20458;-49
2021/01/23 10:32:07;;;;;;;2.90;2.30;;;6.00;99.90;;;;;;5012381;28;20457;-49
2021/01/23 10:34:33;;;;;;;6.17;3.30;;;6.00;99.90;;;;;;4999300;28;20457;-49
2021/01/23 10:37:00;;;;;;;4.07;3.30;;;5.80;99.90;;;;;;4992336;28;20478;-50
2021/01/23 10:39:27;;;;;;;2.80;2.53;;;5.90;99.90;;;;;;4992418;28;20456;-49
2021/01/23 10:41:53;;;;;;;3.13;2.10;;;5.80;99.90;;;;;;4992337;28;20454;-49
2021/01/23 10:44:20;;;;;;;2.70;2.50;;;6.00;99.90;;;;;;4992325;28;21003;-49
2021/01/23 10:46:47;;;;;;;3.13;2.50;;;6.10;99.90;;;;;;4992280;28;20491;-49
2021/01/23 10:49:15;;;;;;;3.20;2.60;;;6.40;99.90;;;;;;4988301;28;20483;-49
2021/01/23 10:51:41;;;;;;;2.70;2.10;;;6.40;99.90;;;;;;4991693;28;20458;-49
2021/01/23 10:54:08;;;;;;;2.67;2.30;;;6.40;99.90;;;;;;4972563;28;20466;-50
2021/01/23 10:56:34;;;;;;;2.00;1.90;;;6.40;99.90;;;;;;4973265;28;20453;-50
2021/01/23 10:59:01;;;;;;;3.17;2.10;;;6.40;99.90;;;;;;4973017;28;20489;-49
2021/01/23 11:01:29;;;;;;;3.00;2.20;;;6.40;99.90;;;;;;4981641;28;20922;-49
2021/01/23 11:03:56;;;;;;;3.10;1.90;;;6.50;99.90;;;;;;4987594;28;20494;-49
2021/01/23 11:06:23;;;;;;;3.30;3.00;;;6.50;99.90;;;;;;4991341;28;20493;-49
2021/01/23 11:08:50;;;;;;;2.53;1.90;;;6.80;99.90;;;;;;4991707;28;20478;-49
2021/01/23 11:11:17;;;;;;;1.80;1.70;;;6.80;99.90;;;;;;4980524;28;20501;-49
2021/01/23 11:13:43;;;;;;;3.40;2.27;;;6.60;99.90;;;;;;4991533;28;20846;-49
2021/01/23 11:16:10;;;;;;;3.33;2.13;;;6.40;99.90;;;;;;4991234;28;20457;-48
2021/01/23 11:18:37;;;;;;;2.43;1.70;;;6.50;99.90;;;;;;4990526;28;20474;-49
2021/01/23 11:21:05;;;;;;;2.40;2.20;;;6.70;99.90;;;;;;4988575;28;20454;-49
2021/01/23 11:23:33;;;;;;;3.13;2.83;;;6.70;99.90;;;;;;4991309;28;20454;-49
2021/01/23 11:25:59;;;;;;;3.50;2.53;;;6.80;99.90;;;;;;4990449;28;20454;-49
2021/01/23 11:28:26;;;;;;;2.93;2.63;;;6.90;99.90;;;;;;4991243;28;20478;-49
2021/01/23 11:30:53;;;;;;;3.80;2.83;;;7.00;99.90;;;;;;4990676;28;20601;-49
2021/01/23 11:33:21;;;;;;;5.03;3.10;;;7.00;99.90;;;;;;4990346;28;20455;-49
2021/01/23 11:35:48;;;;;;;7.03;3.40;;;7.00;99.90;;;;;;4990625;28;20486;-49
2021/01/23 11:38:15;;;;;;;7.53;4.20;;;7.00;99.90;;;;;;4990475;28;20478;-50
2021/01/23 11:40:42;;;;;;;8.77;5.13;;;7.00;99.90;;;;;;4978507;28;20614;-49
2021/01/23 11:43:09;;;;;;;8.27;4.93;;;7.00;99.90;;;;;;4971713;28;20453;-49
2021/01/23 11:45:36;;;;;;;4.70;3.20;;;7.00;99.90;;;;;;4973550;28;20478;-49
2021/01/23 11:48:03;;;;;;;5.20;3.70;;;6.80;99.90;;;;;;4990798;28;20483;-49
2021/01/23 11:50:30;;;;;;;5.63;3.90;;;7.10;99.90;;;;;;4977777;28;20451;-49
2021/01/23 11:52:56;;;;;;;4.00;3.60;;;7.00;99.90;;;;;;4999120;28;20460;-49
2021/01/23 11:55:23;;;;;;;4.20;3.43;;;6.90;99.90;;;;;;4997998;28;20486;-49
2021/01/23 11:57:50;;;;;;;5.67;3.90;;;6.70;99.90;;;;;;4994523;28;20481;-49
2021/01/23 12:00:19;;;;;;;5.13;3.60;;;6.70;99.90;;;;;;4998447;28;20476;-49
2021/01/23 12:02:46;;;;;;;5.63;4.30;;;6.50;99.90;;;;;;4991980;28;20454;-49
2021/01/23 12:05:18;;;;;;;6.57;4.63;;;6.70;99.90;;;;;;4990141;28;20451;-49
2021/01/23 12:07:45;;;;;;;6.20;3.80;;;6.70;99.90;;;;;;4989834;28;20497;-49
2021/01/23 12:10:13;;;;;;;3.63;2.93;;;6.70;99.90;;;;;;4981151;28;20451;-50
2021/01/23 12:12:40;;;;;;;3.57;3.27;;;6.60;99.90;;;;;;4983580;28;20513;-50
2021/01/23 12:15:08;;;;;;;3.40;2.60;;;6.70;99.90;;;;;;4988881;28;20918;-49
2021/01/23 12:17:36;;;;;;;4.23;3.20;;;6.70;99.90;;;;;;4990433;28;21001;-49
2021/01/23 12:20:03;;;;;;;4.80;3.10;;;6.50;99.90;;;;;;4989185;28;20461;-49
2021/01/23 12:22:30;;;;;;;3.10;2.80;;;6.30;99.90;;;;;;4983830;28;20459;-49
2021/01/23 12:24:57;;;;;;;3.30;3.00;;;6.30;99.90;;;;;;4969904;28;20455;-49
2021/01/23 12:27:23;;;;;;;3.10;2.30;;;6.50;99.90;;;;;;4973312;28;20541;-49
2021/01/23 12:29:50;;;;;;;3.80;3.10;;;6.60;99.90;;;;;;4986224;28;20521;-49
2021/01/23 12:32:17;;;;;;;4.33;2.97;;;6.70;99.90;;;;;;4985382;28;20442;-49
2021/01/23 12:34:44;;;;;;;3.10;2.80;;;6.70;99.90;;;;;;4989489;28;20497;-48
2021/01/23 12:37:10;;;;;;;5.10;3.03;;;6.60;99.90;;;;;;4989545;28;20442;-49
2021/01/23 12:39:37;;;;;;;3.63;3.33;;;6.70;99.90;;;;;;4989997;28;20442;-49
2021/01/23 12:42:06;;;;;;;6.73;3.83;;;6.60;99.90;;;;;;4981551;28;20446;-48
2021/01/23 12:44:33;;;;;;;4.50;3.30;;;6.40;99.90;;;;;;4975172;28;20957;-49
2021/01/23 12:47:00;;;;;;;4.53;3.27;;;6.30;99.90;;;;;;4981466;28;20504;-48
2021/01/23 12:49:27;;;;;;;4.20;3.70;;;6.40;99.90;;;;;;4994570;28;20454;-49
2021/01/23 12:51:54;;;;;;;4.43;3.70;;;6.20;99.90;;;;;;4994516;28;20543;-49
2021/01/23 12:54:20;;;;;;;5.13;3.13;;;6.10;99.90;;;;;;4991745;28;20458;-49
2021/01/23 12:56:50;;;;;;;3.93;2.87;;;6.20;99.90;;;;;;4974841;28;20455;-48
2021/01/23 12:59:17;;;;;;;3.63;3.00;;;6.30;99.90;;;;;;4974848;28;20521;-49
2021/01/23 13:01:43;;;;;;;3.53;2.70;;;6.50;99.90;;;;;;4976957;28;20458;-49